PWSweather.com
Personal Weather Stations
Station Observations
UWIDEPER1
Brown County, Depere, WI 54115

Brown CountyDepere, WI 54115

Lat: 44.44, Lon: -88.05

Elevation: 610

Station Type: Acurite 5in1

www.depereweather.com

High Low Average
Temperature 5.0°F-15.0°C -11.2°F-24.0°C -3.5°F-19.7°C
Dew Point -3.9°F-19.9°C -15.9°F-26.6°C -9.8°F-23.2°C
Winds 8.1 mph 13.0 kmh 2.3 mph 3.7 kmh 5.0 mph SSW8.0 kmh SSW
Wind Gusts 11.5 mph18.5 kmh 2.3 mph3.7 kmh 6.0 mph9.7 kmh
Humidity 81% 63% 74%
Pressure 30.75 in1041.3 mb 30.64 in1037.6 mb -
Precipitation 0.00 in0.0 mm - -
Hour Temp Dew Point Humidity Winds Wind Gusts Pressure Precip Precip Rate Daily Precip Total
12:00 AM -7.6°F-22.0°C -13.4°F-25.2°C 75% 4.6 mph WSW7.4 kmh WSW 5.8 mph9.3 kmh 30.67 in1038.6 mb - 0.00 in0.0 mm 0.00 in0.0 mm
12:10 AM -7.6°F-22.0°C -13.4°F-25.2°C 75% 3.5 mph WSW5.6 kmh WSW 3.5 mph5.6 kmh 30.68 in1038.9 mb - 0.00 in0.0 mm 0.00 in0.0 mm
12:15 AM -7.6°F-22.0°C -13.4°F-25.2°C 75% 2.3 mph WSW3.7 kmh WSW 3.5 mph5.6 kmh 30.67 in1038.6 mb - 0.00 in0.0 mm 0.00 in0.0 mm
12:20 AM -7.6°F-22.0°C -13.4°F-25.2°C 75% 3.5 mph WSW5.6 kmh WSW 3.5 mph5.6 kmh 30.67 in1038.6 mb - 0.00 in0.0 mm 0.00 in0.0 mm
12:25 AM -7.6°F-22.0°C -13.4°F-25.2°C 75% 3.5 mph SSW5.6 kmh SSW 3.5 mph5.6 kmh 30.67 in1038.6 mb - 0.00 in0.0 mm 0.00 in0.0 mm
12:30 AM -7.6°F-22.0°C -13.4°F-25.2°C 75% 3.5 mph SW5.6 kmh SW 3.5 mph5.6 kmh 30.67 in1038.6 mb - 0.00 in0.0 mm 0.00 in0.0 mm
12:35 AM -7.6°F-22.0°C -13.2°F-25.1°C 76% 3.5 mph SW5.6 kmh SW 3.5 mph5.6 kmh 30.67 in1038.6 mb - 0.00 in0.0 mm 0.00 in0.0 mm
12:40 AM -7.6°F-22.0°C -13.2°F-25.1°C 76% 3.5 mph WSW5.6 kmh WSW 4.6 mph7.4 kmh 30.68 in1038.9 mb - 0.00 in0.0 mm 0.00 in0.0 mm
12:45 AM -7.6°F-22.0°C -13.2°F-25.1°C 76% 2.3 mph SW3.7 kmh SW 3.5 mph5.6 kmh 30.67 in1038.6 mb - 0.00 in0.0 mm 0.00 in0.0 mm
12:50 AM -7.6°F-22.0°C -13.2°F-25.1°C 76% 3.5 mph WSW5.6 kmh WSW 3.5 mph5.6 kmh 30.68 in1038.9 mb - 0.00 in0.0 mm 0.00 in0.0 mm
12:55 AM -7.6°F-22.0°C -13.2°F-25.1°C 76% 3.5 mph WSW5.6 kmh WSW 3.5 mph5.6 kmh 30.68 in1038.9 mb - 0.00 in0.0 mm 0.00 in0.0 mm
01:00 AM -7.6°F-22.0°C -13.2°F-25.1°C 76% 3.5 mph WSW5.6 kmh WSW 3.5 mph5.6 kmh 30.67 in1038.6 mb - 0.00 in0.0 mm 0.00 in0.0 mm
01:10 AM -7.6°F-22.0°C -13.2°F-25.1°C 76% 4.6 mph W7.4 kmh W 6.9 mph11.1 kmh 30.66 in1038.3 mb - 0.00 in0.0 mm 0.00 in0.0 mm
01:15 AM -7.6°F-22.0°C -13.2°F-25.1°C 76% 4.6 mph WSW7.4 kmh WSW 4.6 mph7.4 kmh 30.67 in1038.6 mb - 0.00 in0.0 mm 0.00 in0.0 mm
01:20 AM -7.6°F-22.0°C -13.2°F-25.1°C 76% 3.5 mph SW5.6 kmh SW 6.9 mph11.1 kmh 30.67 in1038.6 mb - 0.00 in0.0 mm 0.00 in0.0 mm
01:25 AM -7.6°F-22.0°C -13.2°F-25.1°C 76% 4.6 mph NNW7.4 kmh NNW 4.6 mph7.4 kmh 30.67 in1038.6 mb - 0.00 in0.0 mm 0.00 in0.0 mm
01:30 AM -7.6°F-22.0°C -13.2°F-25.1°C 76% 3.5 mph W5.6 kmh W 3.5 mph5.6 kmh 30.68 in1038.9 mb - 0.00 in0.0 mm 0.00 in0.0 mm
01:35 AM -7.6°F-22.0°C -13.2°F-25.1°C 76% 2.3 mph SW3.7 kmh SW 3.5 mph5.6 kmh 30.67 in1038.6 mb - 0.00 in0.0 mm 0.00 in0.0 mm
01:40 AM -7.6°F-22.0°C -13.2°F-25.1°C 76% 4.6 mph SW7.4 kmh SW 9.2 mph14.8 kmh 30.67 in1038.6 mb - 0.00 in0.0 mm 0.00 in0.0 mm
01:45 AM -7.6°F-22.0°C -13.2°F-25.1°C 76% 4.6 mph W7.4 kmh W 11.5 mph18.5 kmh 30.68 in1038.9 mb - 0.00 in0.0 mm 0.00 in0.0 mm
01:50 AM -7.6°F-22.0°C -13.2°F-25.1°C 76% 4.6 mph SW7.4 kmh SW 6.9 mph11.1 kmh 30.67 in1038.6 mb - 0.00 in0.0 mm 0.00 in0.0 mm
01:55 AM -7.6°F-22.0°C -13.4°F-25.2°C 75% 4.6 mph SW7.4 kmh SW 5.8 mph9.3 kmh 30.67 in1038.6 mb - 0.00 in0.0 mm 0.00 in0.0 mm
02:00 AM -7.6°F-22.0°C -13.4°F-25.2°C 75% 4.6 mph WSW7.4 kmh WSW 3.5 mph5.6 kmh 30.67 in1038.6 mb - 0.00 in0.0 mm 0.00 in0.0 mm
02:10 AM -7.6°F-22.0°C -13.4°F-25.2°C 75% 4.6 mph WSW7.4 kmh WSW 8.1 mph13.0 kmh 30.68 in1038.9 mb - 0.00 in0.0 mm 0.00 in0.0 mm
02:15 AM -7.6°F-22.0°C -13.4°F-25.2°C 75% 5.8 mph W9.3 kmh W 6.9 mph11.1 kmh 30.67 in1038.6 mb - 0.00 in0.0 mm 0.00 in0.0 mm
02:20 AM -7.6°F-22.0°C -13.4°F-25.2°C 75% 4.6 mph W7.4 kmh W 4.6 mph7.4 kmh 30.68 in1038.9 mb - 0.00 in0.0 mm 0.00 in0.0 mm
02:25 AM -7.6°F-22.0°C -13.4°F-25.2°C 75% 5.8 mph SW9.3 kmh SW 6.9 mph11.1 kmh 30.68 in1038.9 mb - 0.00 in0.0 mm 0.00 in0.0 mm
02:30 AM -7.6°F-22.0°C -13.4°F-25.2°C 75% 4.6 mph WSW7.4 kmh WSW 3.5 mph5.6 kmh 30.67 in1038.6 mb - 0.00 in0.0 mm 0.00 in0.0 mm
02:35 AM -7.6°F-22.0°C -13.4°F-25.2°C 75% 6.9 mph SW11.1 kmh SW 10.4 mph16.7 kmh 30.68 in1038.9 mb - 0.00 in0.0 mm 0.00 in0.0 mm
02:40 AM -7.6°F-22.0°C -13.4°F-25.2°C 75% 5.8 mph W9.3 kmh W 6.9 mph11.1 kmh 30.67 in1038.6 mb - 0.00 in0.0 mm 0.00 in0.0 mm
02:45 AM -7.6°F-22.0°C -13.4°F-25.2°C 75% 5.8 mph WSW9.3 kmh WSW 5.8 mph9.3 kmh 30.68 in1038.9 mb - 0.00 in0.0 mm 0.00 in0.0 mm
02:50 AM -7.6°F-22.0°C -13.4°F-25.2°C 75% 4.6 mph WSW7.4 kmh WSW 3.5 mph5.6 kmh 30.68 in1038.9 mb - 0.00 in0.0 mm 0.00 in0.0 mm
02:55 AM -9.4°F-23.0°C -15.2°F-26.2°C 75% 4.6 mph WSW7.4 kmh WSW 8.1 mph13.0 kmh 30.67 in1038.6 mb - 0.00 in0.0 mm 0.00 in0.0 mm
03:00 AM -9.4°F-23.0°C -15.2°F-26.2°C 75% 5.8 mph WSW9.3 kmh WSW 6.9 mph11.1 kmh 30.68 in1038.9 mb - 0.00 in0.0 mm 0.00 in0.0 mm
03:10 AM -9.4°F-23.0°C -15.2°F-26.2°C 75% 4.6 mph W7.4 kmh W 6.9 mph11.1 kmh 30.69 in1039.3 mb - 0.00 in0.0 mm 0.00 in0.0 mm
03:15 AM -9.4°F-23.0°C -15.2°F-26.2°C 75% 5.8 mph WSW9.3 kmh WSW 9.2 mph14.8 kmh 30.69 in1039.3 mb - 0.00 in0.0 mm 0.00 in0.0 mm
03:20 AM -9.4°F-23.0°C -15.2°F-26.2°C 75% 4.6 mph WSW7.4 kmh WSW 5.8 mph9.3 kmh 30.68 in1038.9 mb - 0.00 in0.0 mm 0.00 in0.0 mm
03:25 AM -9.4°F-23.0°C -15.2°F-26.2°C 75% 5.8 mph SW9.3 kmh SW 4.6 mph7.4 kmh 30.69 in1039.3 mb - 0.00 in0.0 mm 0.00 in0.0 mm
03:30 AM -9.4°F-23.0°C -15.2°F-26.2°C 75% 5.8 mph WSW9.3 kmh WSW 6.9 mph11.1 kmh 30.68 in1038.9 mb - 0.00 in0.0 mm 0.00 in0.0 mm
03:35 AM -9.4°F-23.0°C -15.2°F-26.2°C 75% 4.6 mph SW7.4 kmh SW 6.9 mph11.1 kmh 30.68 in1038.9 mb - 0.00 in0.0 mm 0.00 in0.0 mm
03:40 AM -9.4°F-23.0°C -15.2°F-26.2°C 75% 5.8 mph W9.3 kmh W 6.9 mph11.1 kmh 30.68 in1038.9 mb - 0.00 in0.0 mm 0.00 in0.0 mm
03:45 AM -9.4°F-23.0°C -15.2°F-26.2°C 75% 4.6 mph W7.4 kmh W 4.6 mph7.4 kmh 30.69 in1039.3 mb - 0.00 in0.0 mm 0.00 in0.0 mm
03:50 AM -9.4°F-23.0°C -15.2°F-26.2°C 75% 4.6 mph WSW7.4 kmh WSW 8.1 mph13.0 kmh 30.68 in1038.9 mb - 0.00 in0.0 mm 0.00 in0.0 mm
03:55 AM -9.4°F-23.0°C -14.9°F-26.1°C 76% 3.5 mph WSW5.6 kmh WSW 2.3 mph3.7 kmh 30.69 in1039.3 mb - 0.00 in0.0 mm 0.00 in0.0 mm
04:00 AM -9.4°F-23.0°C -14.9°F-26.1°C 76% 3.5 mph WSW5.6 kmh WSW 3.5 mph5.6 kmh 30.68 in1038.9 mb - 0.00 in0.0 mm 0.00 in0.0 mm
04:10 AM -9.4°F-23.0°C -14.4°F-25.8°C 78% 3.5 mph SW5.6 kmh SW 3.5 mph5.6 kmh 30.69 in1039.3 mb - 0.00 in0.0 mm 0.00 in0.0 mm
04:15 AM -9.4°F-23.0°C -14.4°F-25.8°C 78% 3.5 mph SW5.6 kmh SW 5.8 mph9.3 kmh 30.68 in1038.9 mb - 0.00 in0.0 mm 0.00 in0.0 mm
04:20 AM -9.4°F-23.0°C -14.1°F-25.6°C 79% 3.5 mph WSW5.6 kmh WSW 5.8 mph9.3 kmh 30.69 in1039.3 mb - 0.00 in0.0 mm 0.00 in0.0 mm
04:25 AM -9.4°F-23.0°C -14.1°F-25.6°C 79% 3.5 mph WSW5.6 kmh WSW 3.5 mph5.6 kmh 30.68 in1038.9 mb - 0.00 in0.0 mm 0.00 in0.0 mm
04:30 AM -9.4°F-23.0°C -14.1°F-25.6°C 79% 3.5 mph WSW5.6 kmh WSW 8.1 mph13.0 kmh 30.68 in1038.9 mb - 0.00 in0.0 mm 0.00 in0.0 mm
04:35 AM -9.4°F-23.0°C -14.1°F-25.6°C 79% 3.5 mph SW5.6 kmh SW 3.5 mph5.6 kmh 30.68 in1038.9 mb - 0.00 in0.0 mm 0.00 in0.0 mm
04:40 AM -9.4°F-23.0°C -14.1°F-25.6°C 79% 3.5 mph SW5.6 kmh SW 3.5 mph5.6 kmh 30.68 in1038.9 mb - 0.00 in0.0 mm 0.00 in0.0 mm
04:45 AM -9.4°F-23.0°C -14.1°F-25.6°C 79% 3.5 mph SSW5.6 kmh SSW 4.6 mph7.4 kmh 30.69 in1039.3 mb - 0.00 in0.0 mm 0.00 in0.0 mm
04:50 AM -9.4°F-23.0°C -14.1°F-25.6°C 79% 3.5 mph WSW5.6 kmh WSW 3.5 mph5.6 kmh 30.70 in1039.6 mb - 0.00 in0.0 mm 0.00 in0.0 mm
04:55 AM -9.4°F-23.0°C -14.1°F-25.6°C 79% 3.5 mph WSW5.6 kmh WSW 4.6 mph7.4 kmh 30.69 in1039.3 mb - 0.00 in0.0 mm 0.00 in0.0 mm
05:00 AM -9.4°F-23.0°C -14.1°F-25.6°C 79% 3.5 mph SW5.6 kmh SW 3.5 mph5.6 kmh 30.70 in1039.6 mb - 0.00 in0.0 mm 0.00 in0.0 mm
05:10 AM -9.4°F-23.0°C -14.1°F-25.6°C 79% 3.5 mph SW5.6 kmh SW 4.6 mph7.4 kmh 30.69 in1039.3 mb - 0.00 in0.0 mm 0.00 in0.0 mm
05:15 AM -11.2°F-24.0°C -15.9°F-26.6°C 79% 3.5 mph SW5.6 kmh SW 3.5 mph5.6 kmh 30.68 in1038.9 mb - 0.00 in0.0 mm 0.00 in0.0 mm
05:20 AM -11.2°F-24.0°C -15.9°F-26.6°C 79% 2.3 mph WSW3.7 kmh WSW 3.5 mph5.6 kmh 30.69 in1039.3 mb - 0.00 in0.0 mm 0.00 in0.0 mm
05:25 AM -11.2°F-24.0°C -15.9°F-26.6°C 79% 3.5 mph SSW5.6 kmh SSW 3.5 mph5.6 kmh 30.68 in1038.9 mb - 0.00 in0.0 mm 0.00 in0.0 mm
05:35 AM -11.2°F-24.0°C -15.7°F-26.5°C 80% 3.5 mph WSW5.6 kmh WSW 6.9 mph11.1 kmh 30.69 in1039.3 mb - 0.00 in0.0 mm 0.00 in0.0 mm
05:40 AM -11.2°F-24.0°C -15.7°F-26.5°C 80% 3.5 mph SW5.6 kmh SW 4.6 mph7.4 kmh 30.69 in1039.3 mb - 0.00 in0.0 mm 0.00 in0.0 mm
05:45 AM -11.2°F-24.0°C -15.7°F-26.5°C 80% 3.5 mph WSW5.6 kmh WSW 4.6 mph7.4 kmh 30.70 in1039.6 mb - 0.00 in0.0 mm 0.00 in0.0 mm
05:50 AM -11.2°F-24.0°C -15.7°F-26.5°C 80% 3.5 mph WSW5.6 kmh WSW 4.6 mph7.4 kmh 30.69 in1039.3 mb - 0.00 in0.0 mm 0.00 in0.0 mm
05:55 AM -11.2°F-24.0°C -15.7°F-26.5°C 80% 3.5 mph WSW5.6 kmh WSW 3.5 mph5.6 kmh 30.70 in1039.6 mb - 0.00 in0.0 mm 0.00 in0.0 mm
06:00 AM -11.2°F-24.0°C -15.7°F-26.5°C 80% 3.5 mph WSW5.6 kmh WSW 3.5 mph5.6 kmh 30.69 in1039.3 mb - 0.00 in0.0 mm 0.00 in0.0 mm
06:10 AM -11.2°F-24.0°C -15.4°F-26.3°C 81% 3.5 mph WSW5.6 kmh WSW 4.6 mph7.4 kmh 30.69 in1039.3 mb - 0.00 in0.0 mm 0.00 in0.0 mm
06:15 AM -11.2°F-24.0°C -15.4°F-26.3°C 81% 3.5 mph WSW5.6 kmh WSW 3.5 mph5.6 kmh 30.69 in1039.3 mb - 0.00 in0.0 mm 0.00 in0.0 mm
06:20 AM -11.2°F-24.0°C -15.4°F-26.3°C 81% 3.5 mph WSW5.6 kmh WSW 4.6 mph7.4 kmh 30.69 in1039.3 mb - 0.00 in0.0 mm 0.00 in0.0 mm
06:25 AM -11.2°F-24.0°C -15.4°F-26.3°C 81% 4.6 mph WSW7.4 kmh WSW 3.5 mph5.6 kmh 30.69 in1039.3 mb - 0.00 in0.0 mm 0.00 in0.0 mm
06:30 AM -11.2°F-24.0°C -15.4°F-26.3°C 81% 3.5 mph SW5.6 kmh SW 3.5 mph5.6 kmh 30.69 in1039.3 mb - 0.00 in0.0 mm 0.00 in0.0 mm
06:35 AM -11.2°F-24.0°C -15.4°F-26.3°C 81% 3.5 mph WSW5.6 kmh WSW 4.6 mph7.4 kmh 30.70 in1039.6 mb - 0.00 in0.0 mm 0.00 in0.0 mm
06:40 AM -11.2°F-24.0°C -15.4°F-26.3°C 81% 4.6 mph WSW7.4 kmh WSW 5.8 mph9.3 kmh 30.69 in1039.3 mb - 0.00 in0.0 mm 0.00 in0.0 mm
06:45 AM -11.2°F-24.0°C -15.4°F-26.3°C 81% 3.5 mph WSW5.6 kmh WSW 4.6 mph7.4 kmh 30.69 in1039.3 mb - 0.00 in0.0 mm 0.00 in0.0 mm
06:50 AM -11.2°F-24.0°C -15.4°F-26.3°C 81% 3.5 mph WSW5.6 kmh WSW 4.6 mph7.4 kmh 30.69 in1039.3 mb - 0.00 in0.0 mm 0.00 in0.0 mm
06:55 AM -11.2°F-24.0°C -15.4°F-26.3°C 81% 3.5 mph WSW5.6 kmh WSW 3.5 mph5.6 kmh 30.69 in1039.3 mb - 0.00 in0.0 mm 0.00 in0.0 mm
07:00 AM -11.2°F-24.0°C -15.4°F-26.3°C 81% 3.5 mph WSW5.6 kmh WSW 5.8 mph9.3 kmh 30.69 in1039.3 mb - 0.00 in0.0 mm 0.00 in0.0 mm
07:10 AM -11.2°F-24.0°C -15.4°F-26.3°C 81% 4.6 mph WSW7.4 kmh WSW 4.6 mph7.4 kmh 30.70 in1039.6 mb - 0.00 in0.0 mm 0.00 in0.0 mm
07:15 AM -11.2°F-24.0°C -15.4°F-26.3°C 81% 4.6 mph W7.4 kmh W 5.8 mph9.3 kmh 30.70 in1039.6 mb - 0.00 in0.0 mm 0.00 in0.0 mm
07:20 AM -11.2°F-24.0°C -15.4°F-26.3°C 81% 3.5 mph WSW5.6 kmh WSW 5.8 mph9.3 kmh 30.70 in1039.6 mb - 0.00 in0.0 mm 0.00 in0.0 mm
07:25 AM -11.2°F-24.0°C -15.4°F-26.3°C 81% 5.8 mph WSW9.3 kmh WSW 4.6 mph7.4 kmh 30.70 in1039.6 mb - 0.00 in0.0 mm 0.00 in0.0 mm
07:30 AM -11.2°F-24.0°C -15.4°F-26.3°C 81% 4.6 mph WSW7.4 kmh WSW 5.8 mph9.3 kmh 30.70 in1039.6 mb - 0.00 in0.0 mm 0.00 in0.0 mm
07:35 AM -11.2°F-24.0°C -15.4°F-26.3°C 81% 3.5 mph W5.6 kmh W 9.2 mph14.8 kmh 30.70 in1039.6 mb - 0.00 in0.0 mm 0.00 in0.0 mm
07:40 AM -9.4°F-23.0°C -13.6°F-25.3°C 81% 4.6 mph SW7.4 kmh SW 4.6 mph7.4 kmh 30.69 in1039.3 mb - 0.00 in0.0 mm 0.00 in0.0 mm
07:45 AM -9.4°F-23.0°C -13.6°F-25.3°C 81% 3.5 mph W5.6 kmh W 3.5 mph5.6 kmh 30.70 in1039.6 mb - 0.00 in0.0 mm 0.00 in0.0 mm
07:50 AM -9.4°F-23.0°C -13.6°F-25.3°C 81% 4.6 mph W7.4 kmh W 9.2 mph14.8 kmh 30.70 in1039.6 mb - 0.00 in0.0 mm 0.00 in0.0 mm
07:55 AM -9.4°F-23.0°C -13.6°F-25.3°C 81% 4.6 mph WSW7.4 kmh WSW 5.8 mph9.3 kmh 30.70 in1039.6 mb - 0.00 in0.0 mm 0.00 in0.0 mm
08:00 AM -9.4°F-23.0°C -13.6°F-25.3°C 81% 4.6 mph WSW7.4 kmh WSW 4.6 mph7.4 kmh 30.71 in1040.0 mb - 0.00 in0.0 mm 0.00 in0.0 mm
08:10 AM -9.4°F-23.0°C -13.6°F-25.3°C 81% 4.6 mph WSW7.4 kmh WSW 4.6 mph7.4 kmh 30.70 in1039.6 mb - 0.00 in0.0 mm 0.00 in0.0 mm
08:15 AM -11.2°F-24.0°C -15.4°F-26.3°C 81% 3.5 mph WSW5.6 kmh WSW 4.6 mph7.4 kmh 30.70 in1039.6 mb - 0.00 in0.0 mm 0.00 in0.0 mm
08:20 AM -11.2°F-24.0°C -15.4°F-26.3°C 81% 3.5 mph SW5.6 kmh SW 5.8 mph9.3 kmh 30.71 in1040.0 mb - 0.00 in0.0 mm 0.00 in0.0 mm
08:25 AM -11.2°F-24.0°C -15.4°F-26.3°C 81% 4.6 mph WSW7.4 kmh WSW 5.8 mph9.3 kmh 30.71 in1040.0 mb - 0.00 in0.0 mm 0.00 in0.0 mm
08:30 AM -11.2°F-24.0°C -15.4°F-26.3°C 81% 4.6 mph WSW7.4 kmh WSW 4.6 mph7.4 kmh 30.71 in1040.0 mb - 0.00 in0.0 mm 0.00 in0.0 mm
08:35 AM -11.2°F-24.0°C -15.4°F-26.3°C 81% 4.6 mph WSW7.4 kmh WSW 5.8 mph9.3 kmh 30.71 in1040.0 mb - 0.00 in0.0 mm 0.00 in0.0 mm
08:40 AM -11.2°F-24.0°C -15.4°F-26.3°C 81% 3.5 mph SW5.6 kmh SW 3.5 mph5.6 kmh 30.71 in1040.0 mb - 0.00 in0.0 mm 0.00 in0.0 mm
08:45 AM -11.2°F-24.0°C -15.4°F-26.3°C 81% 4.6 mph W7.4 kmh W 5.8 mph9.3 kmh 30.72 in1040.3 mb - 0.00 in0.0 mm 0.00 in0.0 mm
08:50 AM -11.2°F-24.0°C -15.4°F-26.3°C 81% 4.6 mph SW7.4 kmh SW 4.6 mph7.4 kmh 30.72 in1040.3 mb - 0.00 in0.0 mm 0.00 in0.0 mm
08:55 AM -11.2°F-24.0°C -15.4°F-26.3°C 81% 3.5 mph WSW5.6 kmh WSW 8.1 mph13.0 kmh 30.72 in1040.3 mb - 0.00 in0.0 mm 0.00 in0.0 mm
09:00 AM -11.2°F-24.0°C -15.4°F-26.3°C 81% 3.5 mph W5.6 kmh W 3.5 mph5.6 kmh 30.72 in1040.3 mb - 0.00 in0.0 mm 0.00 in0.0 mm
09:10 AM -9.4°F-23.0°C -13.6°F-25.3°C 81% 3.5 mph WSW5.6 kmh WSW 4.6 mph7.4 kmh 30.72 in1040.3 mb - 0.00 in0.0 mm 0.00 in0.0 mm
09:15 AM -9.4°F-23.0°C -13.6°F-25.3°C 81% 3.5 mph WSW5.6 kmh WSW 3.5 mph5.6 kmh 30.72 in1040.3 mb - 0.00 in0.0 mm 0.00 in0.0 mm
09:20 AM -9.4°F-23.0°C -13.9°F-25.5°C 80% 3.5 mph SW5.6 kmh SW 3.5 mph5.6 kmh 30.73 in1040.6 mb - 0.00 in0.0 mm 0.00 in0.0 mm
09:25 AM -7.6°F-22.0°C -12.4°F-24.7°C 79% 3.5 mph WSW5.6 kmh WSW 4.6 mph7.4 kmh 30.73 in1040.6 mb - 0.00 in0.0 mm 0.00 in0.0 mm
09:30 AM -7.6°F-22.0°C -12.6°F-24.8°C 78% 4.6 mph WSW7.4 kmh WSW 5.8 mph9.3 kmh 30.73 in1040.6 mb - 0.00 in0.0 mm 0.00 in0.0 mm
09:35 AM -7.6°F-22.0°C -12.6°F-24.8°C 78% 4.6 mph SW7.4 kmh SW 6.9 mph11.1 kmh 30.73 in1040.6 mb - 0.00 in0.0 mm 0.00 in0.0 mm
09:40 AM -7.6°F-22.0°C -12.6°F-24.8°C 78% 5.8 mph WSW9.3 kmh WSW 6.9 mph11.1 kmh 30.73 in1040.6 mb - 0.00 in0.0 mm 0.00 in0.0 mm
09:45 AM -7.6°F-22.0°C -12.6°F-24.8°C 78% 5.8 mph S9.3 kmh S 5.8 mph9.3 kmh 30.74 in1041.0 mb - 0.00 in0.0 mm 0.00 in0.0 mm
09:50 AM -7.6°F-22.0°C -12.6°F-24.8°C 78% 4.6 mph W7.4 kmh W 5.8 mph9.3 kmh 30.74 in1041.0 mb - 0.00 in0.0 mm 0.00 in0.0 mm
09:55 AM -7.5°F-21.9°C -13.1°F-25.1°C 76% 4.6 mph W7.4 kmh W 5.8 mph9.3 kmh 30.73 in1040.6 mb - 0.00 in0.0 mm 0.00 in0.0 mm
10:00 AM -5.8°F-21.0°C -11.7°F-24.3°C 75% 5.8 mph W9.3 kmh W 5.8 mph9.3 kmh 30.73 in1040.6 mb - 0.00 in0.0 mm 0.00 in0.0 mm
10:10 AM -5.8°F-21.0°C -11.9°F-24.4°C 74% 5.8 mph W9.3 kmh W 8.1 mph13.0 kmh 30.74 in1041.0 mb - 0.00 in0.0 mm 0.00 in0.0 mm
10:15 AM -4.0°F-20.0°C -10.5°F-23.6°C 73% 5.8 mph W9.3 kmh W 5.8 mph9.3 kmh 30.74 in1041.0 mb - 0.00 in0.0 mm 0.00 in0.0 mm
10:20 AM -4.0°F-20.0°C -11.0°F-23.9°C 71% 5.8 mph WSW9.3 kmh WSW 9.2 mph14.8 kmh 30.74 in1041.0 mb - 0.00 in0.0 mm 0.00 in0.0 mm
10:25 AM -4.0°F-20.0°C -11.0°F-23.9°C 71% 5.8 mph W9.3 kmh W 5.8 mph9.3 kmh 30.74 in1041.0 mb - 0.00 in0.0 mm 0.00 in0.0 mm
10:30 AM -4.0°F-20.0°C -11.3°F-24.1°C 70% 5.8 mph W9.3 kmh W 6.9 mph11.1 kmh 30.74 in1041.0 mb - 0.00 in0.0 mm 0.00 in0.0 mm
10:35 AM -4.0°F-20.0°C -11.3°F-24.1°C 70% 5.8 mph W9.3 kmh W 11.5 mph18.5 kmh 30.74 in1041.0 mb - 0.00 in0.0 mm 0.00 in0.0 mm
10:40 AM -2.2°F-19.0°C -9.6°F-23.1°C 70% 6.9 mph W11.1 kmh W 9.2 mph14.8 kmh 30.74 in1041.0 mb - 0.00 in0.0 mm 0.00 in0.0 mm
10:45 AM -2.2°F-19.0°C -9.6°F-23.1°C 70% 5.8 mph W9.3 kmh W 9.2 mph14.8 kmh 30.74 in1041.0 mb - 0.00 in0.0 mm 0.00 in0.0 mm
10:50 AM -2.2°F-19.0°C -9.6°F-23.1°C 70% 5.8 mph WSW9.3 kmh WSW 8.1 mph13.0 kmh 30.74 in1041.0 mb - 0.00 in0.0 mm 0.00 in0.0 mm
10:55 AM -2.2°F-19.0°C -9.6°F-23.1°C 70% 4.6 mph W7.4 kmh W 4.6 mph7.4 kmh 30.74 in1041.0 mb - 0.00 in0.0 mm 0.00 in0.0 mm
11:00 AM -2.2°F-19.0°C -9.6°F-23.1°C 70% 5.8 mph W9.3 kmh W 6.9 mph11.1 kmh 30.74 in1041.0 mb - 0.00 in0.0 mm 0.00 in0.0 mm
11:10 AM -0.4°F-18.0°C -7.9°F-22.2°C 70% 5.8 mph W9.3 kmh W 6.9 mph11.1 kmh 30.75 in1041.3 mb - 0.00 in0.0 mm 0.00 in0.0 mm
11:15 AM -0.4°F-18.0°C -7.9°F-22.2°C 70% 5.8 mph WSW9.3 kmh WSW 6.9 mph11.1 kmh 30.75 in1041.3 mb - 0.00 in0.0 mm 0.00 in0.0 mm
11:20 AM -0.4°F-18.0°C -8.2°F-22.3°C 69% 5.8 mph W9.3 kmh W 5.8 mph9.3 kmh 30.75 in1041.3 mb - 0.00 in0.0 mm 0.00 in0.0 mm
11:25 AM -0.4°F-18.0°C -8.2°F-22.3°C 69% 6.9 mph W11.1 kmh W 6.9 mph11.1 kmh 30.75 in1041.3 mb - 0.00 in0.0 mm 0.00 in0.0 mm
11:30 AM -0.4°F-18.0°C -8.2°F-22.3°C 69% 4.6 mph W7.4 kmh W 6.9 mph11.1 kmh 30.75 in1041.3 mb - 0.00 in0.0 mm 0.00 in0.0 mm
11:35 AM -0.4°F-18.0°C -8.2°F-22.3°C 69% 5.8 mph SW9.3 kmh SW 6.9 mph11.1 kmh 30.74 in1041.0 mb - 0.00 in0.0 mm 0.00 in0.0 mm
11:40 AM -0.4°F-18.0°C -8.2°F-22.3°C 69% 6.9 mph WSW11.1 kmh WSW 8.1 mph13.0 kmh 30.74 in1041.0 mb - 0.00 in0.0 mm 0.00 in0.0 mm
11:45 AM -0.4°F-18.0°C -8.2°F-22.3°C 69% 6.9 mph NW11.1 kmh NW 6.9 mph11.1 kmh 30.74 in1041.0 mb - 0.00 in0.0 mm 0.00 in0.0 mm
11:50 AM -0.4°F-18.0°C -8.2°F-22.3°C 69% 5.8 mph W9.3 kmh W 8.1 mph13.0 kmh 30.73 in1040.6 mb - 0.00 in0.0 mm 0.00 in0.0 mm
11:55 AM -0.4°F-18.0°C -8.2°F-22.3°C 69% 6.9 mph W11.1 kmh W 5.8 mph9.3 kmh 30.73 in1040.6 mb - 0.00 in0.0 mm 0.00 in0.0 mm
12:00 PM 1.4°F-17.0°C -6.4°F-21.3°C 69% 4.6 mph WSW7.4 kmh WSW 8.1 mph13.0 kmh 30.73 in1040.6 mb - 0.00 in0.0 mm 0.00 in0.0 mm
12:10 PM 1.4°F-17.0°C -6.4°F-21.3°C 69% 4.6 mph WSW7.4 kmh WSW 3.5 mph5.6 kmh 30.72 in1040.3 mb - 0.00 in0.0 mm 0.00 in0.0 mm
12:15 PM 1.4°F-17.0°C -6.7°F-21.5°C 68% 5.8 mph W9.3 kmh W 4.6 mph7.4 kmh 30.73 in1040.6 mb - 0.00 in0.0 mm 0.00 in0.0 mm
12:20 PM 1.4°F-17.0°C -6.7°F-21.5°C 68% 5.8 mph W9.3 kmh W 10.4 mph16.7 kmh 30.72 in1040.3 mb - 0.00 in0.0 mm 0.00 in0.0 mm
12:25 PM 1.4°F-17.0°C -6.7°F-21.5°C 68% 4.6 mph WSW7.4 kmh WSW 6.9 mph11.1 kmh 30.72 in1040.3 mb - 0.00 in0.0 mm 0.00 in0.0 mm
12:30 PM 3.2°F-16.0°C -5.0°F-20.6°C 68% 5.8 mph W9.3 kmh W 9.2 mph14.8 kmh 30.72 in1040.3 mb - 0.00 in0.0 mm 0.00 in0.0 mm
12:35 PM 3.2°F-16.0°C -5.0°F-20.6°C 68% 5.8 mph W9.3 kmh W 5.8 mph9.3 kmh 30.72 in1040.3 mb - 0.00 in0.0 mm 0.00 in0.0 mm
12:40 PM 3.2°F-16.0°C -5.0°F-20.6°C 68% 6.9 mph SW11.1 kmh SW 8.1 mph13.0 kmh 30.70 in1039.6 mb - 0.00 in0.0 mm 0.00 in0.0 mm
12:45 PM 1.4°F-17.0°C -6.4°F-21.3°C 69% 5.8 mph W9.3 kmh W 3.5 mph5.6 kmh 30.71 in1040.0 mb - 0.00 in0.0 mm 0.00 in0.0 mm
12:50 PM 3.2°F-16.0°C -4.7°F-20.4°C 69% 5.8 mph W9.3 kmh W 5.8 mph9.3 kmh 30.71 in1040.0 mb - 0.00 in0.0 mm 0.00 in0.0 mm
12:55 PM 3.2°F-16.0°C -4.7°F-20.4°C 69% 6.9 mph W11.1 kmh W 8.1 mph13.0 kmh 30.71 in1040.0 mb - 0.00 in0.0 mm 0.00 in0.0 mm
01:00 PM 3.2°F-16.0°C -4.7°F-20.4°C 69% 6.9 mph W11.1 kmh W 8.1 mph13.0 kmh 30.71 in1040.0 mb - 0.00 in0.0 mm 0.00 in0.0 mm
01:10 PM 1.4°F-17.0°C -6.1°F-21.2°C 70% 5.8 mph WSW9.3 kmh WSW 6.9 mph11.1 kmh 30.71 in1040.0 mb - 0.00 in0.0 mm 0.00 in0.0 mm
01:15 PM 1.4°F-17.0°C -6.1°F-21.2°C 70% 5.8 mph WSW9.3 kmh WSW 6.9 mph11.1 kmh 30.71 in1040.0 mb - 0.00 in0.0 mm 0.00 in0.0 mm
01:20 PM 1.4°F-17.0°C -6.1°F-21.2°C 70% 5.8 mph WSW9.3 kmh WSW 6.9 mph11.1 kmh 30.71 in1040.0 mb - 0.00 in0.0 mm 0.00 in0.0 mm
01:25 PM 1.6°F-16.9°C -5.9°F-21.1°C 70% 5.8 mph W9.3 kmh W 8.1 mph13.0 kmh 30.71 in1040.0 mb - 0.00 in0.0 mm 0.00 in0.0 mm
01:30 PM 3.2°F-16.0°C -5.0°F-20.6°C 68% 6.9 mph WSW11.1 kmh WSW 8.1 mph13.0 kmh 30.71 in1040.0 mb - 0.00 in0.0 mm 0.00 in0.0 mm
01:35 PM 5.0°F-15.0°C -3.9°F-19.9°C 66% 5.8 mph WSW9.3 kmh WSW 6.9 mph11.1 kmh 30.70 in1039.6 mb - 0.00 in0.0 mm 0.00 in0.0 mm
01:40 PM 5.0°F-15.0°C -3.9°F-19.9°C 66% 4.6 mph SW7.4 kmh SW 6.9 mph11.1 kmh 30.70 in1039.6 mb - 0.00 in0.0 mm 0.00 in0.0 mm
01:45 PM 5.0°F-15.0°C -4.2°F-20.1°C 65% 5.8 mph WSW9.3 kmh WSW 8.1 mph13.0 kmh 30.70 in1039.6 mb - 0.00 in0.0 mm 0.00 in0.0 mm
01:50 PM 5.0°F-15.0°C -4.2°F-20.1°C 65% 6.9 mph SW11.1 kmh SW 8.1 mph13.0 kmh 30.70 in1039.6 mb - 0.00 in0.0 mm 0.00 in0.0 mm
01:55 PM 5.0°F-15.0°C -4.2°F-20.1°C 65% 5.8 mph WSW9.3 kmh WSW 6.9 mph11.1 kmh 30.70 in1039.6 mb - 0.00 in0.0 mm 0.00 in0.0 mm
02:00 PM 5.0°F-15.0°C -4.2°F-20.1°C 65% 6.9 mph W11.1 kmh W 9.2 mph14.8 kmh 30.69 in1039.3 mb - 0.00 in0.0 mm 0.00 in0.0 mm
02:10 PM 5.0°F-15.0°C -4.2°F-20.1°C 65% 6.9 mph SE11.1 kmh SE 11.5 mph18.5 kmh 30.69 in1039.3 mb - 0.00 in0.0 mm 0.00 in0.0 mm
02:15 PM 5.0°F-15.0°C -4.2°F-20.1°C 65% 6.9 mph WSW11.1 kmh WSW 6.9 mph11.1 kmh 30.68 in1038.9 mb - 0.00 in0.0 mm 0.00 in0.0 mm
02:20 PM 5.0°F-15.0°C -4.2°F-20.1°C 65% 6.9 mph WSW11.1 kmh WSW 10.4 mph16.7 kmh 30.69 in1039.3 mb - 0.00 in0.0 mm 0.00 in0.0 mm
02:25 PM 5.0°F-15.0°C -4.2°F-20.1°C 65% 8.1 mph W13.0 kmh W 11.5 mph18.5 kmh 30.69 in1039.3 mb - 0.00 in0.0 mm 0.00 in0.0 mm
02:30 PM 5.0°F-15.0°C -4.2°F-20.1°C 65% 6.9 mph WSW11.1 kmh WSW 5.8 mph9.3 kmh 30.70 in1039.6 mb - 0.00 in0.0 mm 0.00 in0.0 mm
02:35 PM 5.0°F-15.0°C -4.2°F-20.1°C 65% 5.8 mph W9.3 kmh W 8.1 mph13.0 kmh 30.69 in1039.3 mb - 0.00 in0.0 mm 0.00 in0.0 mm
02:40 PM 5.0°F-15.0°C -4.2°F-20.1°C 65% 6.9 mph W11.1 kmh W 8.1 mph13.0 kmh 30.70 in1039.6 mb - 0.00 in0.0 mm 0.00 in0.0 mm
02:45 PM 5.0°F-15.0°C -4.2°F-20.1°C 65% 6.9 mph S11.1 kmh S 5.8 mph9.3 kmh 30.69 in1039.3 mb - 0.00 in0.0 mm 0.00 in0.0 mm
02:50 PM 5.0°F-15.0°C -4.2°F-20.1°C 65% 6.9 mph WSW11.1 kmh WSW 8.1 mph13.0 kmh 30.69 in1039.3 mb - 0.00 in0.0 mm 0.00 in0.0 mm
02:55 PM 5.0°F-15.0°C -4.2°F-20.1°C 65% 5.8 mph SW9.3 kmh SW 8.1 mph13.0 kmh 30.69 in1039.3 mb - 0.00 in0.0 mm 0.00 in0.0 mm
03:00 PM 5.0°F-15.0°C -4.9°F-20.5°C 63% 6.9 mph W11.1 kmh W 9.2 mph14.8 kmh 30.70 in1039.6 mb - 0.00 in0.0 mm 0.00 in0.0 mm
03:10 PM 5.0°F-15.0°C -4.9°F-20.5°C 63% 6.9 mph SW11.1 kmh SW 11.5 mph18.5 kmh 30.70 in1039.6 mb - 0.00 in0.0 mm 0.00 in0.0 mm
03:15 PM 5.0°F-15.0°C -4.2°F-20.1°C 65% 5.8 mph WSW9.3 kmh WSW 8.1 mph13.0 kmh 30.69 in1039.3 mb - 0.00 in0.0 mm 0.00 in0.0 mm
03:20 PM 5.0°F-15.0°C -4.9°F-20.5°C 63% 6.9 mph WSW11.1 kmh WSW 11.5 mph18.5 kmh 30.69 in1039.3 mb - 0.00 in0.0 mm 0.00 in0.0 mm
03:25 PM 5.0°F-15.0°C -4.9°F-20.5°C 63% 6.9 mph WSW11.1 kmh WSW 9.2 mph14.8 kmh 30.69 in1039.3 mb - 0.00 in0.0 mm 0.00 in0.0 mm
03:30 PM 5.0°F-15.0°C -4.5°F-20.3°C 64% 5.8 mph SW9.3 kmh SW 6.9 mph11.1 kmh 30.70 in1039.6 mb - 0.00 in0.0 mm 0.00 in0.0 mm
03:35 PM 5.0°F-15.0°C -4.2°F-20.1°C 65% 5.8 mph WSW9.3 kmh WSW 5.8 mph9.3 kmh 30.68 in1038.9 mb - 0.00 in0.0 mm 0.00 in0.0 mm
03:40 PM 5.0°F-15.0°C -4.2°F-20.1°C 65% 5.8 mph SW9.3 kmh SW 8.1 mph13.0 kmh 30.69 in1039.3 mb - 0.00 in0.0 mm 0.00 in0.0 mm
03:45 PM 5.0°F-15.0°C -4.9°F-20.5°C 63% 5.8 mph W9.3 kmh W 6.9 mph11.1 kmh 30.68 in1038.9 mb - 0.00 in0.0 mm 0.00 in0.0 mm
03:50 PM 5.0°F-15.0°C -4.9°F-20.5°C 63% 6.9 mph WSW11.1 kmh WSW 4.6 mph7.4 kmh 30.68 in1038.9 mb - 0.00 in0.0 mm 0.00 in0.0 mm
03:55 PM 3.2°F-16.0°C -5.9°F-21.1°C 65% 5.8 mph SW9.3 kmh SW 8.1 mph13.0 kmh 30.68 in1038.9 mb - 0.00 in0.0 mm 0.00 in0.0 mm
04:00 PM 3.2°F-16.0°C -6.2°F-21.2°C 64% 5.8 mph WSW9.3 kmh WSW 10.4 mph16.7 kmh 30.68 in1038.9 mb - 0.00 in0.0 mm 0.00 in0.0 mm
04:10 PM 3.2°F-16.0°C -6.6°F-21.4°C 63% 6.9 mph WSW11.1 kmh WSW 8.1 mph13.0 kmh 30.69 in1039.3 mb - 0.00 in0.0 mm 0.00 in0.0 mm
04:15 PM 3.2°F-16.0°C -5.9°F-21.1°C 65% 5.8 mph WSW9.3 kmh WSW 8.1 mph13.0 kmh 30.70 in1039.6 mb - 0.00 in0.0 mm 0.00 in0.0 mm
04:20 PM 3.2°F-16.0°C -5.9°F-21.1°C 65% 5.8 mph NW9.3 kmh NW 9.2 mph14.8 kmh 30.70 in1039.6 mb - 0.00 in0.0 mm 0.00 in0.0 mm
04:25 PM 3.2°F-16.0°C -5.9°F-21.1°C 65% 6.9 mph WSW11.1 kmh WSW 8.1 mph13.0 kmh 30.70 in1039.6 mb - 0.00 in0.0 mm 0.00 in0.0 mm
04:30 PM 1.4°F-17.0°C -7.3°F-21.8°C 66% 5.8 mph SW9.3 kmh SW 8.1 mph13.0 kmh 30.70 in1039.6 mb - 0.00 in0.0 mm 0.00 in0.0 mm
04:35 PM 1.4°F-17.0°C -7.0°F-21.7°C 67% 5.8 mph WSW9.3 kmh WSW 9.2 mph14.8 kmh 30.70 in1039.6 mb - 0.00 in0.0 mm 0.00 in0.0 mm
04:40 PM 1.4°F-17.0°C -6.7°F-21.5°C 68% 6.9 mph SW11.1 kmh SW 5.8 mph9.3 kmh 30.70 in1039.6 mb - 0.00 in0.0 mm 0.00 in0.0 mm
04:45 PM 3.2°F-16.0°C -5.6°F-20.9°C 66% 5.8 mph WSW9.3 kmh WSW 5.8 mph9.3 kmh 30.69 in1039.3 mb - 0.00 in0.0 mm 0.00 in0.0 mm
04:50 PM 3.2°F-16.0°C -5.6°F-20.9°C 66% 5.8 mph W9.3 kmh W 5.8 mph9.3 kmh 30.69 in1039.3 mb - 0.00 in0.0 mm 0.00 in0.0 mm
04:55 PM 3.2°F-16.0°C -5.6°F-20.9°C 66% 4.6 mph SW7.4 kmh SW 9.2 mph14.8 kmh 30.69 in1039.3 mb - 0.00 in0.0 mm 0.00 in0.0 mm
05:00 PM 3.2°F-16.0°C -5.6°F-20.9°C 66% 4.6 mph NW7.4 kmh NW 8.1 mph13.0 kmh 30.69 in1039.3 mb - 0.00 in0.0 mm 0.00 in0.0 mm
05:10 PM 1.4°F-17.0°C -6.7°F-21.5°C 68% 4.6 mph ESE7.4 kmh ESE 5.8 mph9.3 kmh 30.69 in1039.3 mb - 0.00 in0.0 mm 0.00 in0.0 mm
05:15 PM 1.4°F-17.0°C -6.4°F-21.3°C 69% 4.6 mph ESE7.4 kmh ESE 5.8 mph9.3 kmh 30.70 in1039.6 mb - 0.00 in0.0 mm 0.00 in0.0 mm
05:20 PM 1.4°F-17.0°C -6.1°F-21.2°C 70% 4.6 mph ESE7.4 kmh ESE 3.5 mph5.6 kmh 30.69 in1039.3 mb - 0.00 in0.0 mm 0.00 in0.0 mm
05:25 PM 1.4°F-17.0°C -6.1°F-21.2°C 70% 4.6 mph ESE7.4 kmh ESE 8.1 mph13.0 kmh 30.69 in1039.3 mb - 0.00 in0.0 mm 0.00 in0.0 mm
05:30 PM 1.4°F-17.0°C -6.1°F-21.2°C 70% 5.8 mph ESE9.3 kmh ESE 5.8 mph9.3 kmh 30.69 in1039.3 mb - 0.00 in0.0 mm 0.00 in0.0 mm
05:35 PM 1.4°F-17.0°C -6.1°F-21.2°C 70% 4.6 mph ESE7.4 kmh ESE 6.9 mph11.1 kmh 30.70 in1039.6 mb - 0.00 in0.0 mm 0.00 in0.0 mm
05:40 PM 1.4°F-17.0°C -6.1°F-21.2°C 70% 4.6 mph ESE7.4 kmh ESE 3.5 mph5.6 kmh 30.70 in1039.6 mb - 0.00 in0.0 mm 0.00 in0.0 mm
05:45 PM 1.4°F-17.0°C -6.1°F-21.2°C 70% 3.5 mph ESE5.6 kmh ESE 4.6 mph7.4 kmh 30.70 in1039.6 mb - 0.00 in0.0 mm 0.00 in0.0 mm
05:50 PM 1.3°F-17.1°C -6.2°F-21.2°C 70% 4.6 mph SE7.4 kmh SE 9.2 mph14.8 kmh 30.70 in1039.6 mb - 0.00 in0.0 mm 0.00 in0.0 mm
05:55 PM -0.4°F-18.0°C -7.9°F-22.2°C 70% 4.6 mph WNW7.4 kmh WNW 4.6 mph7.4 kmh 30.70 in1039.6 mb - 0.00 in0.0 mm 0.00 in0.0 mm
06:00 PM -0.4°F-18.0°C -7.9°F-22.2°C 70% 4.6 mph WSW7.4 kmh WSW 4.6 mph7.4 kmh 30.69 in1039.3 mb - 0.00 in0.0 mm 0.00 in0.0 mm
06:10 PM -0.4°F-18.0°C -7.6°F-22.0°C 71% 3.5 mph WSW5.6 kmh WSW 5.8 mph9.3 kmh 30.69 in1039.3 mb - 0.00 in0.0 mm 0.00 in0.0 mm
06:15 PM -0.4°F-18.0°C -7.0°F-21.7°C 73% 3.5 mph WSW5.6 kmh WSW 3.5 mph5.6 kmh 30.69 in1039.3 mb - 0.00 in0.0 mm 0.00 in0.0 mm
06:20 PM -0.4°F-18.0°C -7.0°F-21.7°C 73% 3.5 mph WSW5.6 kmh WSW 6.9 mph11.1 kmh 30.69 in1039.3 mb - 0.00 in0.0 mm 0.00 in0.0 mm
06:25 PM -0.4°F-18.0°C -7.0°F-21.7°C 73% 4.6 mph ENE7.4 kmh ENE 3.5 mph5.6 kmh 30.69 in1039.3 mb - 0.00 in0.0 mm 0.00 in0.0 mm
06:30 PM -0.4°F-18.0°C -7.0°F-21.7°C 73% 3.5 mph ENE5.6 kmh ENE 4.6 mph7.4 kmh 30.69 in1039.3 mb - 0.00 in0.0 mm 0.00 in0.0 mm
06:35 PM -0.4°F-18.0°C -6.7°F-21.5°C 74% 4.6 mph E7.4 kmh E 5.8 mph9.3 kmh 30.69 in1039.3 mb - 0.00 in0.0 mm 0.00 in0.0 mm
06:40 PM -0.4°F-18.0°C -6.7°F-21.5°C 74% 4.6 mph E7.4 kmh E 5.8 mph9.3 kmh 30.70 in1039.6 mb - 0.00 in0.0 mm 0.00 in0.0 mm
06:45 PM -0.4°F-18.0°C -6.7°F-21.5°C 74% 3.5 mph E5.6 kmh E 3.5 mph5.6 kmh 30.70 in1039.6 mb - 0.00 in0.0 mm 0.00 in0.0 mm
06:50 PM -0.4°F-18.0°C -6.7°F-21.5°C 74% 3.5 mph E5.6 kmh E 6.9 mph11.1 kmh 30.70 in1039.6 mb - 0.00 in0.0 mm 0.00 in0.0 mm
06:55 PM -0.4°F-18.0°C -6.7°F-21.5°C 74% 3.5 mph E5.6 kmh E 3.5 mph5.6 kmh 30.71 in1040.0 mb - 0.00 in0.0 mm 0.00 in0.0 mm
07:00 PM -0.4°F-18.0°C -6.4°F-21.3°C 75% 4.6 mph E7.4 kmh E 4.6 mph7.4 kmh 30.70 in1039.6 mb - 0.00 in0.0 mm 0.00 in0.0 mm
07:10 PM -0.4°F-18.0°C -6.7°F-21.5°C 74% 4.6 mph E7.4 kmh E 9.2 mph14.8 kmh 30.70 in1039.6 mb - 0.00 in0.0 mm 0.00 in0.0 mm
07:15 PM -0.4°F-18.0°C -6.7°F-21.5°C 74% 4.6 mph E7.4 kmh E 4.6 mph7.4 kmh 30.69 in1039.3 mb - 0.00 in0.0 mm 0.00 in0.0 mm
07:20 PM -0.4°F-18.0°C -6.7°F-21.5°C 74% 4.6 mph E7.4 kmh E 8.1 mph13.0 kmh 30.70 in1039.6 mb - 0.00 in0.0 mm 0.00 in0.0 mm
07:25 PM -0.4°F-18.0°C -6.7°F-21.5°C 74% 4.6 mph E7.4 kmh E 3.5 mph5.6 kmh 30.69 in1039.3 mb - 0.00 in0.0 mm 0.00 in0.0 mm
07:30 PM -0.4°F-18.0°C -6.7°F-21.5°C 74% 4.6 mph E7.4 kmh E 4.6 mph7.4 kmh 30.70 in1039.6 mb - 0.00 in0.0 mm 0.00 in0.0 mm
07:35 PM -0.4°F-18.0°C -6.7°F-21.5°C 74% 3.5 mph E5.6 kmh E 4.6 mph7.4 kmh 30.70 in1039.6 mb - 0.00 in0.0 mm 0.00 in0.0 mm
07:40 PM -0.4°F-18.0°C -6.7°F-21.5°C 74% 4.6 mph E7.4 kmh E 8.1 mph13.0 kmh 30.69 in1039.3 mb - 0.00 in0.0 mm 0.00 in0.0 mm
07:45 PM -0.4°F-18.0°C -6.7°F-21.5°C 74% 4.6 mph E7.4 kmh E 3.5 mph5.6 kmh 30.70 in1039.6 mb - 0.00 in0.0 mm 0.00 in0.0 mm
07:50 PM -2.2°F-19.0°C -8.5°F-22.5°C 74% 3.5 mph E5.6 kmh E 5.8 mph9.3 kmh 30.70 in1039.6 mb - 0.00 in0.0 mm 0.00 in0.0 mm
07:55 PM -2.2°F-19.0°C -8.5°F-22.5°C 74% 4.6 mph E7.4 kmh E 4.6 mph7.4 kmh 30.70 in1039.6 mb - 0.00 in0.0 mm 0.00 in0.0 mm
08:00 PM -2.2°F-19.0°C -8.5°F-22.5°C 74% 4.6 mph E7.4 kmh E 6.9 mph11.1 kmh 30.70 in1039.6 mb - 0.00 in0.0 mm 0.00 in0.0 mm
08:10 PM -2.2°F-19.0°C -8.5°F-22.5°C 74% 4.6 mph E7.4 kmh E 3.5 mph5.6 kmh 30.70 in1039.6 mb - 0.00 in0.0 mm 0.00 in0.0 mm
08:15 PM -2.2°F-19.0°C -8.2°F-22.3°C 75% 4.6 mph E7.4 kmh E 3.5 mph5.6 kmh 30.69 in1039.3 mb - 0.00 in0.0 mm 0.00 in0.0 mm
08:20 PM -2.2°F-19.0°C -8.2°F-22.3°C 75% 4.6 mph E7.4 kmh E 4.6 mph7.4 kmh 30.69 in1039.3 mb - 0.00 in0.0 mm 0.00 in0.0 mm
08:25 PM -2.2°F-19.0°C -8.2°F-22.3°C 75% 3.5 mph E5.6 kmh E 3.5 mph5.6 kmh 30.70 in1039.6 mb - 0.00 in0.0 mm 0.00 in0.0 mm
08:30 PM -2.2°F-19.0°C -8.2°F-22.3°C 75% 3.5 mph E5.6 kmh E 3.5 mph5.6 kmh 30.69 in1039.3 mb - 0.00 in0.0 mm 0.00 in0.0 mm
08:35 PM -2.2°F-19.0°C -8.2°F-22.3°C 75% 3.5 mph E5.6 kmh E 3.5 mph5.6 kmh 30.69 in1039.3 mb - 0.00 in0.0 mm 0.00 in0.0 mm
08:40 PM -2.2°F-19.0°C -8.2°F-22.3°C 75% 3.5 mph E5.6 kmh E 4.6 mph7.4 kmh 30.69 in1039.3 mb - 0.00 in0.0 mm 0.00 in0.0 mm
08:45 PM -2.2°F-19.0°C -8.2°F-22.3°C 75% 3.5 mph E5.6 kmh E 5.8 mph9.3 kmh 30.69 in1039.3 mb - 0.00 in0.0 mm 0.00 in0.0 mm
08:50 PM -2.2°F-19.0°C -8.2°F-22.3°C 75% 3.5 mph E5.6 kmh E 4.6 mph7.4 kmh 30.69 in1039.3 mb - 0.00 in0.0 mm 0.00 in0.0 mm
08:55 PM -2.2°F-19.0°C -8.2°F-22.3°C 75% 4.6 mph E7.4 kmh E 4.6 mph7.4 kmh 30.69 in1039.3 mb - 0.00 in0.0 mm 0.00 in0.0 mm
09:00 PM -2.2°F-19.0°C -7.9°F-22.2°C 76% 3.5 mph E5.6 kmh E 4.6 mph7.4 kmh 30.69 in1039.3 mb - 0.00 in0.0 mm 0.00 in0.0 mm
09:10 PM -2.2°F-19.0°C -7.9°F-22.2°C 76% 2.3 mph E3.7 kmh E 3.5 mph5.6 kmh 30.69 in1039.3 mb - 0.00 in0.0 mm 0.00 in0.0 mm
09:15 PM -2.2°F-19.0°C -7.9°F-22.2°C 76% 3.5 mph E5.6 kmh E 3.5 mph5.6 kmh 30.69 in1039.3 mb - 0.00 in0.0 mm 0.00 in0.0 mm
09:20 PM -2.2°F-19.0°C -7.9°F-22.2°C 76% 3.5 mph E5.6 kmh E 3.5 mph5.6 kmh 30.68 in1038.9 mb - 0.00 in0.0 mm 0.00 in0.0 mm
09:25 PM -2.2°F-19.0°C -7.9°F-22.2°C 76% 2.3 mph E3.7 kmh E 3.5 mph5.6 kmh 30.68 in1038.9 mb - 0.00 in0.0 mm 0.00 in0.0 mm
09:30 PM -2.2°F-19.0°C -7.4°F-21.9°C 78% 3.5 mph E5.6 kmh E 3.5 mph5.6 kmh 30.68 in1038.9 mb - 0.00 in0.0 mm 0.00 in0.0 mm
09:35 PM -2.2°F-19.0°C -7.4°F-21.9°C 78% 3.5 mph E5.6 kmh E 2.3 mph3.7 kmh 30.68 in1038.9 mb - 0.00 in0.0 mm 0.00 in0.0 mm
09:40 PM -2.2°F-19.0°C -7.4°F-21.9°C 78% 3.5 mph E5.6 kmh E 4.6 mph7.4 kmh 30.68 in1038.9 mb - 0.00 in0.0 mm 0.00 in0.0 mm
09:45 PM -2.2°F-19.0°C -7.4°F-21.9°C 78% 3.5 mph E5.6 kmh E 3.5 mph5.6 kmh 30.68 in1038.9 mb - 0.00 in0.0 mm 0.00 in0.0 mm
09:50 PM -2.2°F-19.0°C -7.4°F-21.9°C 78% 2.3 mph E3.7 kmh E 3.5 mph5.6 kmh 30.67 in1038.6 mb - 0.00 in0.0 mm 0.00 in0.0 mm
09:55 PM -2.2°F-19.0°C -7.4°F-21.9°C 78% 3.5 mph E5.6 kmh E 3.5 mph5.6 kmh 30.68 in1038.9 mb - 0.00 in0.0 mm 0.00 in0.0 mm
10:00 PM -2.2°F-19.0°C -7.4°F-21.9°C 78% 3.5 mph E5.6 kmh E 4.6 mph7.4 kmh 30.67 in1038.6 mb - 0.00 in0.0 mm 0.00 in0.0 mm
10:10 PM -2.2°F-19.0°C -7.4°F-21.9°C 78% 4.6 mph E7.4 kmh E 5.8 mph9.3 kmh 30.67 in1038.6 mb - 0.00 in0.0 mm 0.00 in0.0 mm
10:15 PM -2.2°F-19.0°C -7.4°F-21.9°C 78% 3.5 mph E5.6 kmh E 3.5 mph5.6 kmh 30.67 in1038.6 mb - 0.00 in0.0 mm 0.00 in0.0 mm
10:20 PM -2.2°F-19.0°C -7.4°F-21.9°C 78% 2.3 mph E3.7 kmh E 3.5 mph5.6 kmh 30.67 in1038.6 mb - 0.00 in0.0 mm 0.00 in0.0 mm
10:25 PM -2.2°F-19.0°C -7.4°F-21.9°C 78% 3.5 mph E5.6 kmh E 4.6 mph7.4 kmh 30.67 in1038.6 mb - 0.00 in0.0 mm 0.00 in0.0 mm
10:30 PM -2.2°F-19.0°C -7.4°F-21.9°C 78% 2.3 mph E3.7 kmh E 3.5 mph5.6 kmh 30.67 in1038.6 mb - 0.00 in0.0 mm 0.00 in0.0 mm
10:35 PM -2.2°F-19.0°C -7.4°F-21.9°C 78% 3.5 mph E5.6 kmh E 3.5 mph5.6 kmh 30.67 in1038.6 mb - 0.00 in0.0 mm 0.00 in0.0 mm
10:40 PM -2.2°F-19.0°C -7.4°F-21.9°C 78% 2.3 mph E3.7 kmh E 3.5 mph5.6 kmh 30.67 in1038.6 mb - 0.00 in0.0 mm 0.00 in0.0 mm
10:45 PM -2.2°F-19.0°C -7.4°F-21.9°C 78% 3.5 mph E5.6 kmh E 3.5 mph5.6 kmh 30.67 in1038.6 mb - 0.00 in0.0 mm 0.00 in0.0 mm
10:50 PM -2.2°F-19.0°C -7.4°F-21.9°C 78% 3.5 mph E5.6 kmh E 4.6 mph7.4 kmh 30.67 in1038.6 mb - 0.00 in0.0 mm 0.00 in0.0 mm
10:55 PM -2.2°F-19.0°C -7.4°F-21.9°C 78% 3.5 mph E5.6 kmh E 5.8 mph9.3 kmh 30.67 in1038.6 mb - 0.00 in0.0 mm 0.00 in0.0 mm
11:00 PM -2.2°F-19.0°C -7.4°F-21.9°C 78% 3.5 mph E5.6 kmh E 3.5 mph5.6 kmh 30.66 in1038.3 mb - 0.00 in0.0 mm 0.00 in0.0 mm
11:10 PM -4.0°F-20.0°C -9.1°F-22.8°C 78% 3.5 mph E5.6 kmh E 4.6 mph7.4 kmh 30.66 in1038.3 mb - 0.00 in0.0 mm 0.00 in0.0 mm
11:15 PM -4.0°F-20.0°C -9.1°F-22.8°C 78% 3.5 mph E5.6 kmh E 3.5 mph5.6 kmh 30.66 in1038.3 mb - 0.00 in0.0 mm 0.00 in0.0 mm
11:20 PM -4.0°F-20.0°C -9.1°F-22.8°C 78% 3.5 mph E5.6 kmh E 3.5 mph5.6 kmh 30.66 in1038.3 mb - 0.00 in0.0 mm 0.00 in0.0 mm
11:25 PM -4.0°F-20.0°C -9.1°F-22.8°C 78% 3.5 mph E5.6 kmh E 5.8 mph9.3 kmh 30.66 in1038.3 mb - 0.00 in0.0 mm 0.00 in0.0 mm
11:30 PM -4.0°F-20.0°C -9.1°F-22.8°C 78% 3.5 mph E5.6 kmh E 4.6 mph7.4 kmh 30.66 in1038.3 mb - 0.00 in0.0 mm 0.00 in0.0 mm
11:35 PM -2.2°F-19.0°C -7.9°F-22.2°C 76% 4.6 mph E7.4 kmh E 6.9 mph11.1 kmh 30.66 in1038.3 mb - 0.00 in0.0 mm 0.00 in0.0 mm
11:40 PM -2.2°F-19.0°C -7.9°F-22.2°C 76% 4.6 mph E7.4 kmh E 5.8 mph9.3 kmh 30.65 in1037.9 mb - 0.00 in0.0 mm 0.00 in0.0 mm
11:45 PM -2.2°F-19.0°C -7.9°F-22.2°C 76% 3.5 mph E5.6 kmh E 5.8 mph9.3 kmh 30.65 in1037.9 mb - 0.00 in0.0 mm 0.00 in0.0 mm
11:50 PM -4.0°F-20.0°C -9.7°F-23.2°C 76% 3.5 mph E5.6 kmh E 3.5 mph5.6 kmh 30.65 in1037.9 mb - 0.00 in0.0 mm 0.00 in0.0 mm
11:55 PM -4.0°F-20.0°C -9.7°F-23.2°C 76% 3.5 mph E5.6 kmh E 4.6 mph7.4 kmh 30.64 in1037.6 mb - 0.00 in0.0 mm 0.00 in0.0 mm